createdAt,value
2023-01-03T12:12:38.571Z,7.90
2023-01-03T12:15:18.369Z,7.10
2023-01-03T12:17:53.271Z,7.70
2023-01-03T12:20:26.343Z,6.90
2023-01-03T12:23:04.867Z,7.50
2023-01-03T12:25:36.526Z,7.50
2023-01-03T12:28:07.511Z,7.50
2023-01-03T12:30:46.813Z,7.50
2023-01-03T12:33:22.427Z,7.60
2023-01-03T12:36:43.065Z,7.60
2023-01-03T12:39:33.409Z,7.90
2023-01-03T12:42:28.723Z,7.60
2023-01-03T12:45:20.396Z,7.60
2023-01-03T12:48:22.294Z,7.50
2023-01-03T12:50:51.631Z,7.50
2023-01-03T12:53:31.013Z,7.50
2023-01-03T12:56:09.935Z,7.30
2023-01-03T12:59:01.177Z,7.60
2023-01-03T13:01:58.201Z,7.50
2023-01-03T13:04:34.970Z,7.60
2023-01-03T13:07:19.936Z,7.50
2023-01-03T13:10:00.822Z,7.60
2023-01-03T13:12:30.982Z,7.50
2023-01-03T13:15:18.549Z,7.50
2023-01-03T13:17:49.663Z,7.60
2023-01-03T13:20:32.099Z,7.50
2023-01-03T13:23:19.987Z,7.50
2023-01-03T13:26:17.717Z,7.50
2023-01-03T13:28:44.781Z,7.40
2023-01-03T13:31:37.647Z,7.00
2023-01-03T13:34:19.200Z,7.40
2023-01-03T13:37:11.980Z,7.40
2023-01-03T13:40:02.006Z,7.30
2023-01-03T13:42:38.857Z,7.20
2023-01-03T13:45:38.061Z,7.20
2023-01-03T13:48:24.010Z,7.20
2023-01-03T13:51:33.567Z,7.30
2023-01-03T13:54:05.471Z,7.30
2023-01-03T13:56:44.561Z,7.20
2023-01-03T13:59:14.929Z,7.20
2023-01-03T14:02:17.287Z,7.20
2023-01-03T14:05:29.085Z,7.10
2023-01-03T14:08:03.250Z,7.10
2023-01-03T14:10:49.265Z,6.80
2023-01-03T14:13:23.179Z,6.80
2023-01-03T14:16:03.810Z,6.90
2023-01-03T14:18:31.584Z,7.30
2023-01-03T14:21:01.428Z,6.90
2023-01-03T14:23:59.054Z,6.90
2023-01-03T14:26:18.721Z,6.80
2023-01-03T14:28:51.704Z,6.80
2023-01-03T14:31:25.456Z,6.80
2023-01-03T14:34:05.307Z,6.70
2023-01-03T14:36:48.122Z,6.70
2023-01-03T14:39:23.649Z,6.70
2023-01-03T14:41:51.235Z,6.70
2023-01-03T14:44:18.233Z,6.40
2023-01-03T14:46:54.834Z,6.60
2023-01-03T14:49:45.257Z,6.60
2023-01-03T14:52:25.887Z,6.60
2023-01-03T14:55:01.648Z,6.60
2023-01-03T14:57:31.943Z,6.60
2023-01-03T15:00:00.636Z,6.60
2023-01-03T15:02:31.293Z,6.60
2023-01-03T15:05:03.753Z,6.50
2023-01-03T15:07:44.366Z,6.50
2023-01-03T15:10:11.368Z,6.60
2023-01-03T15:12:50.833Z,6.60
2023-01-03T15:15:32.562Z,6.50
2023-01-03T15:18:04.871Z,6.50
2023-01-03T15:20:38.128Z,6.50
2023-01-03T15:23:06.063Z,6.50
2023-01-03T15:25:40.728Z,6.40
2023-01-03T15:28:32.207Z,6.40
2023-01-03T15:31:14.229Z,6.30
2023-01-03T15:33:42.067Z,6.10
2023-01-03T15:36:18.745Z,6.00
2023-01-03T15:38:48.651Z,5.80
2023-01-03T15:42:06.455Z,5.70
2023-01-03T15:44:39.833Z,5.60
2023-01-03T15:47:09.231Z,5.30
2023-01-03T15:49:44.628Z,5.40
2023-01-03T15:52:15.658Z,5.40
2023-01-03T15:54:44.329Z,5.50
2023-01-03T15:57:22.996Z,5.60
2023-01-03T15:59:56.390Z,5.80
2023-01-03T16:02:25.944Z,5.80
2023-01-03T16:04:54.443Z,5.90
2023-01-03T16:07:24.303Z,5.90
2023-01-03T16:09:53.659Z,5.90
2023-01-03T16:12:35.374Z,6.00
2023-01-03T16:15:04.189Z,6.00
2023-01-03T16:17:32.173Z,6.40
2023-01-03T16:20:00.836Z,6.90
2023-01-03T16:22:35.030Z,6.10
2023-01-03T16:25:05.308Z,5.80
2023-01-03T16:27:33.302Z,6.00
2023-01-03T16:30:04.241Z,6.00
2023-01-03T16:32:32.375Z,5.60
2023-01-03T16:35:02.145Z,5.70
2023-01-03T16:37:29.341Z,5.60
2023-01-03T16:39:58.356Z,5.30
2023-01-03T16:42:28.650Z,5.20
2023-01-03T16:44:56.247Z,5.30
2023-01-03T16:47:25.784Z,5.40
2023-01-03T16:50:01.167Z,5.10
2023-01-03T16:52:32.219Z,5.10
2023-01-03T16:55:04.335Z,4.90
2023-01-03T16:57:31.411Z,4.90
2023-01-03T17:02:26.314Z,5.10
2023-01-03T17:04:53.887Z,4.80
2023-01-03T17:07:24.093Z,4.60
2023-01-03T17:09:51.993Z,4.90
2023-01-03T17:12:23.208Z,5.00
2023-01-03T17:14:51.126Z,4.60
2023-01-03T17:17:24.911Z,4.80
2023-01-03T17:20:10.019Z,4.40
2023-01-03T17:22:39.621Z,5.00
2023-01-03T17:25:09.446Z,4.50
2023-01-03T17:27:36.454Z,5.10
2023-01-03T17:30:06.807Z,4.70
2023-01-03T17:32:34.160Z,4.80
2023-01-03T17:35:03.355Z,4.70
2023-01-03T17:37:45.392Z,5.00
2023-01-03T17:40:26.428Z,4.60
2023-01-03T17:42:59.101Z,4.70
2023-01-03T17:48:33.446Z,4.50
2023-01-03T17:51:01.911Z,4.30
2023-01-03T17:53:29.462Z,4.80
2023-01-03T17:55:57.039Z,4.80
2023-01-03T17:58:36.197Z,4.80
2023-01-03T18:01:08.061Z,5.00
2023-01-03T18:03:38.850Z,5.10
2023-01-03T18:06:14.711Z,5.10
2023-01-03T18:08:42.721Z,5.20
2023-01-03T18:11:16.763Z,5.20
2023-01-03T18:13:45.367Z,5.00
2023-01-03T18:16:16.241Z,5.30
2023-01-03T18:18:43.495Z,6.00
2023-01-03T18:21:22.793Z,5.80
2023-01-03T18:24:06.226Z,6.00
2023-01-03T18:26:39.744Z,5.40
2023-01-03T18:29:08.071Z,5.50
2023-01-03T18:31:35.508Z,5.70
2023-01-03T18:34:04.634Z,5.60
2023-01-03T18:36:38.827Z,5.50
2023-01-03T18:39:12.024Z,5.90
2023-01-03T18:41:40.294Z,5.70
2023-01-03T18:44:20.445Z,4.90
2023-01-03T18:46:48.230Z,5.10
2023-01-03T18:49:15.526Z,5.70
2023-01-03T18:51:44.153Z,5.40
2023-01-03T18:54:16.843Z,5.80
2023-01-03T18:56:44.789Z,4.90
2023-01-03T18:59:27.992Z,5.40
2023-01-03T19:01:55.739Z,5.80
2023-01-03T19:04:22.946Z,5.60
2023-01-03T19:06:53.765Z,5.30
2023-01-03T19:09:26.625Z,6.30
2023-01-03T19:11:55.906Z,5.50
2023-01-03T19:14:23.001Z,5.30
2023-01-03T19:16:50.396Z,5.70
2023-01-03T19:21:47.026Z,4.90
2023-01-03T19:24:36.251Z,5.10
2023-01-03T19:27:15.058Z,6.50
2023-01-03T19:29:42.515Z,5.60
2023-01-03T19:32:22.660Z,5.70
2023-01-03T19:34:50.159Z,5.60
2023-01-03T19:37:17.643Z,6.20
2023-01-03T19:39:44.815Z,5.60
2023-01-03T19:42:35.792Z,5.30
2023-01-03T19:45:14.644Z,5.60
2023-01-03T19:47:42.019Z,5.70
2023-01-03T19:50:21.476Z,5.40
2023-01-03T19:52:49.161Z,5.80
2023-01-03T19:55:17.454Z,5.20
2023-01-03T19:57:47.628Z,5.60
2023-01-03T20:00:23.911Z,5.70
2023-01-03T20:02:53.817Z,5.80
2023-01-03T20:05:26.550Z,5.50
2023-01-03T20:07:53.904Z,5.80
2023-01-03T20:10:23.748Z,5.80
2023-01-03T20:12:55.428Z,5.00
2023-01-03T20:15:25.009Z,5.40
2023-01-03T20:17:53.434Z,5.80
2023-01-03T20:20:21.223Z,5.10
2023-01-03T20:23:06.748Z,5.50
2023-01-03T20:25:35.480Z,5.50
2023-01-03T20:28:03.599Z,5.60
2023-01-03T20:30:33.160Z,5.70
2023-01-03T20:33:00.642Z,5.50
2023-01-03T20:38:21.263Z,5.50
2023-01-03T20:40:48.302Z,5.60
2023-01-03T20:43:17.393Z,5.60
2023-01-03T20:45:45.314Z,5.50
2023-01-03T20:48:24.771Z,5.50
2023-01-03T20:50:53.484Z,5.50
2023-01-03T20:53:24.349Z,5.50
2023-01-03T20:55:54.470Z,5.10
2023-01-03T20:58:25.399Z,5.20
2023-01-03T21:00:56.944Z,4.70
2023-01-03T21:03:35.750Z,5.60
2023-01-03T21:06:10.944Z,5.40
2023-01-03T21:08:56.572Z,5.40
2023-01-03T21:11:28.858Z,5.40
2023-01-03T21:13:57.721Z,5.00
2023-01-03T21:16:30.025Z,5.60
2023-01-03T21:19:06.704Z,5.30
2023-01-03T21:21:34.595Z,5.70
2023-01-03T21:26:29.871Z,5.80
2023-01-03T21:28:58.068Z,5.10
2023-01-03T21:31:28.089Z,5.30
2023-01-03T21:33:58.059Z,5.20
2023-01-03T21:36:30.570Z,5.60
2023-01-03T21:38:59.119Z,5.20
2023-01-03T21:41:30.197Z,4.60
2023-01-03T21:43:59.459Z,5.20
2023-01-03T21:46:27.352Z,5.30
2023-01-03T21:48:55.475Z,5.10
2023-01-03T21:51:41.611Z,4.80
2023-01-03T21:54:09.925Z,5.00
2023-01-03T21:56:47.346Z,4.80
2023-01-03T21:59:16.131Z,4.90
2023-01-03T22:02:03.083Z,4.90
2023-01-03T22:04:30.965Z,5.30
2023-01-03T22:07:00.876Z,4.90
2023-01-03T22:09:48.489Z,4.70
2023-01-03T22:12:16.560Z,4.90
2023-01-03T22:14:47.017Z,5.00
2023-01-03T22:17:14.564Z,4.80
2023-01-03T22:22:09.894Z,4.90
2023-01-03T22:24:37.225Z,4.70
2023-01-03T22:34:27.306Z,4.30
2023-01-03T22:36:54.270Z,3.70
2023-01-03T22:39:21.573Z,4.10
2023-01-03T22:41:48.550Z,4.10
2023-01-03T22:46:43.310Z,3.60
2023-01-03T22:49:10.775Z,3.50
2023-01-03T22:51:39.624Z,3.50
2023-01-03T22:54:06.958Z,3.00
2023-01-03T22:56:34.051Z,3.40
2023-01-03T22:59:02.029Z,3.30
2023-01-03T23:01:29.432Z,3.10
2023-01-03T23:04:01.799Z,3.00
2023-01-03T23:06:30.367Z,3.10
2023-01-03T23:08:58.022Z,2.90
2023-01-03T23:11:45.895Z,2.80
2023-01-03T23:14:18.400Z,3.40
2023-01-03T23:16:46.780Z,2.80
2023-01-03T23:19:16.381Z,2.70
2023-01-03T23:21:45.399Z,2.60
2023-01-03T23:24:30.776Z,2.70
2023-01-03T23:26:57.749Z,2.60
2023-01-03T23:29:25.097Z,2.60
2023-01-03T23:31:52.798Z,2.40
2023-01-03T23:34:20.183Z,2.20
2023-01-03T23:36:47.230Z,2.60
2023-01-03T23:39:16.829Z,2.40
2023-01-03T23:41:44.671Z,2.90
2023-01-03T23:44:12.147Z,2.20
2023-01-03T23:46:40.519Z,2.30
2023-01-03T23:49:09.945Z,2.30
2023-01-03T23:51:37.079Z,2.30
2023-01-03T23:58:59.651Z,2.20
